sensor_id;sensor_type;location;lat;lon;timestamp;P1;durP1;ratioP1;P2;durP2;ratioP2
49376;SDS011;35253;34.688;33.040;2023-04-25T00:00:11;6.82;;;5.60;;
49376;SDS011;35253;34.688;33.040;2023-04-25T00:02:37;4.90;;;4.03;;
49376;SDS011;35253;34.688;33.040;2023-04-25T00:05:03;7.43;;;3.60;;
49376;SDS011;35253;34.688;33.040;2023-04-25T00:07:30;7.38;;;3.85;;
49376;SDS011;35253;34.688;33.040;2023-04-25T00:09:56;21.63;;;8.93;;
49376;SDS011;35253;34.688;33.040;2023-04-25T00:12:22;23.80;;;8.75;;
49376;SDS011;35253;34.688;33.040;2023-04-25T00:14:48;12.13;;;6.88;;
49376;SDS011;35253;34.688;33.040;2023-04-25T00:17:15;7.05;;;5.65;;
49376;SDS011;35253;34.688;33.040;2023-04-25T00:19:42;5.30;;;4.30;;
49376;SDS011;35253;34.688;33.040;2023-04-25T00:22:09;10.43;;;4.97;;
49376;SDS011;35253;34.688;33.040;2023-04-25T00:24:35;5.10;;;4.03;;
49376;SDS011;35253;34.688;33.040;2023-04-25T00:27:01;7.43;;;5.43;;
49376;SDS011;35253;34.688;33.040;2023-04-25T00:29:27;4.45;;;3.63;;
49376;SDS011;35253;34.688;33.040;2023-04-25T00:31:52;6.15;;;4.15;;
49376;SDS011;35253;34.688;33.040;2023-04-25T00:34:18;4.40;;;4.00;;
49376;SDS011;35253;34.688;33.040;2023-04-25T00:36:44;8.57;;;3.60;;
49376;SDS011;35253;34.688;33.040;2023-04-25T00:39:11;3.78;;;3.45;;
49376;SDS011;35253;34.688;33.040;2023-04-25T00:41:38;5.53;;;3.10;;
49376;SDS011;35253;34.688;33.040;2023-04-25T00:44:03;6.65;;;3.30;;
49376;SDS011;35253;34.688;33.040;2023-04-25T00:46:31;9.38;;;4.28;;
49376;SDS011;35253;34.688;33.040;2023-04-25T00:48:57;6.95;;;3.70;;
49376;SDS011;35253;34.688;33.040;2023-04-25T00:51:23;9.13;;;3.95;;
49376;SDS011;35253;34.688;33.040;2023-04-25T00:53:51;7.53;;;4.38;;
49376;SDS011;35253;34.688;33.040;2023-04-25T00:56:17;5.95;;;3.97;;
49376;SDS011;35253;34.688;33.040;2023-04-25T00:58:43;5.93;;;3.75;;
49376;SDS011;35253;34.688;33.040;2023-04-25T01:01:10;5.30;;;3.90;;
49376;SDS011;35253;34.688;33.040;2023-04-25T01:03:37;7.43;;;3.95;;
49376;SDS011;35253;34.688;33.040;2023-04-25T01:06:07;4.35;;;3.58;;
49376;SDS011;35253;34.688;33.040;2023-04-25T01:08:34;7.28;;;4.25;;
49376;SDS011;35253;34.688;33.040;2023-04-25T01:11:00;9.88;;;5.15;;
49376;SDS011;35253;34.688;33.040;2023-04-25T01:13:26;5.63;;;3.28;;
49376;SDS011;35253;34.688;33.040;2023-04-25T01:15:52;6.07;;;3.22;;
49376;SDS011;35253;34.688;33.040;2023-04-25T01:18:18;3.70;;;3.33;;
49376;SDS011;35253;34.688;33.040;2023-04-25T01:20:46;4.93;;;4.05;;
49376;SDS011;35253;34.688;33.040;2023-04-25T01:25:41;5.25;;;3.90;;
49376;SDS011;35253;34.688;33.040;2023-04-25T01:28:07;6.30;;;3.58;;
49376;SDS011;35253;34.688;33.040;2023-04-25T01:30:33;5.60;;;3.00;;
49376;SDS011;35253;34.688;33.040;2023-04-25T01:33:01;7.30;;;4.13;;
49376;SDS011;35253;34.688;33.040;2023-04-25T01:35:29;4.38;;;3.28;;
49376;SDS011;35253;34.688;33.040;2023-04-25T01:37:55;5.25;;;3.75;;
49376;SDS011;35253;34.688;33.040;2023-04-25T01:40:21;12.30;;;4.50;;
49376;SDS011;35253;34.688;33.040;2023-04-25T01:42:48;5.63;;;3.40;;
49376;SDS011;35253;34.688;33.040;2023-04-25T01:45:14;6.47;;;3.63;;
49376;SDS011;35253;34.688;33.040;2023-04-25T01:47:40;4.88;;;3.20;;
49376;SDS011;35253;34.688;33.040;2023-04-25T01:50:08;7.15;;;3.25;;
49376;SDS011;35253;34.688;33.040;2023-04-25T01:52:34;10.48;;;3.65;;
49376;SDS011;35253;34.688;33.040;2023-04-25T01:55:00;6.50;;;4.00;;
49376;SDS011;35253;34.688;33.040;2023-04-25T01:57:27;8.38;;;3.95;;
49376;SDS011;35253;34.688;33.040;2023-04-25T01:59:55;5.97;;;3.40;;
49376;SDS011;35253;34.688;33.040;2023-04-25T02:02:24;4.93;;;3.28;;
49376;SDS011;35253;34.688;33.040;2023-04-25T02:04:49;6.25;;;3.13;;
49376;SDS011;35253;34.688;33.040;2023-04-25T02:07:15;7.93;;;3.10;;
49376;SDS011;35253;34.688;33.040;2023-04-25T02:09:41;6.28;;;3.40;;
49376;SDS011;35253;34.688;33.040;2023-04-25T02:12:07;5.18;;;3.22;;
49376;SDS011;35253;34.688;33.040;2023-04-25T02:14:34;6.60;;;3.88;;
49376;SDS011;35253;34.688;33.040;2023-04-25T02:17:00;6.63;;;3.97;;
49376;SDS011;35253;34.688;33.040;2023-04-25T02:19:26;4.90;;;2.70;;
49376;SDS011;35253;34.688;33.040;2023-04-25T02:21:51;6.57;;;3.70;;
49376;SDS011;35253;34.688;33.040;2023-04-25T02:24:17;7.13;;;3.58;;
49376;SDS011;35253;34.688;33.040;2023-04-25T02:26:43;6.53;;;4.32;;
49376;SDS011;35253;34.688;33.040;2023-04-25T02:29:09;6.50;;;3.75;;
49376;SDS011;35253;34.688;33.040;2023-04-25T02:31:35;7.75;;;4.03;;
49376;SDS011;35253;34.688;33.040;2023-04-25T02:34:01;9.13;;;4.38;;
49376;SDS011;35253;34.688;33.040;2023-04-25T02:36:27;5.55;;;3.63;;
49376;SDS011;35253;34.688;33.040;2023-04-25T02:38:54;8.50;;;3.50;;
49376;SDS011;35253;34.688;33.040;2023-04-25T02:41:20;5.63;;;3.85;;
49376;SDS011;35253;34.688;33.040;2023-04-25T02:43:46;8.43;;;3.92;;
49376;SDS011;35253;34.688;33.040;2023-04-25T02:46:11;7.90;;;5.68;;
49376;SDS011;35253;34.688;33.040;2023-04-25T02:48:37;7.53;;;4.78;;
49376;SDS011;35253;34.688;33.040;2023-04-25T02:51:03;6.00;;;4.20;;
49376;SDS011;35253;34.688;33.040;2023-04-25T02:53:28;7.78;;;3.95;;
49376;SDS011;35253;34.688;33.040;2023-04-25T02:55:54;6.22;;;3.65;;
49376;SDS011;35253;34.688;33.040;2023-04-25T02:58:23;6.90;;;3.90;;
49376;SDS011;35253;34.688;33.040;2023-04-25T03:00:48;4.60;;;4.03;;
49376;SDS011;35253;34.688;33.040;2023-04-25T03:03:14;5.50;;;3.70;;
49376;SDS011;35253;34.688;33.040;2023-04-25T03:05:42;6.55;;;3.97;;
49376;SDS011;35253;34.688;33.040;2023-04-25T03:08:09;7.70;;;4.13;;
49376;SDS011;35253;34.688;33.040;2023-04-25T03:10:34;4.88;;;3.45;;
49376;SDS011;35253;34.688;33.040;2023-04-25T03:13:00;7.28;;;3.65;;
49376;SDS011;35253;34.688;33.040;2023-04-25T03:15:26;7.38;;;4.03;;
49376;SDS011;35253;34.688;33.040;2023-04-25T03:17:51;10.60;;;4.75;;
49376;SDS011;35253;34.688;33.040;2023-04-25T03:20:17;9.45;;;4.55;;
49376;SDS011;35253;34.688;33.040;2023-04-25T03:22:43;9.38;;;5.47;;
49376;SDS011;35253;34.688;33.040;2023-04-25T03:25:09;9.50;;;3.65;;
49376;SDS011;35253;34.688;33.040;2023-04-25T03:27:35;9.80;;;3.47;;
49376;SDS011;35253;34.688;33.040;2023-04-25T03:30:01;10.38;;;4.50;;
49376;SDS011;35253;34.688;33.040;2023-04-25T03:32:26;7.07;;;3.47;;
49376;SDS011;35253;34.688;33.040;2023-04-25T03:34:52;13.40;;;4.00;;
49376;SDS011;35253;34.688;33.040;2023-04-25T03:37:18;7.47;;;4.30;;
49376;SDS011;35253;34.688;33.040;2023-04-25T03:39:43;8.55;;;4.55;;
49376;SDS011;35253;34.688;33.040;2023-04-25T03:42:09;6.35;;;3.78;;
49376;SDS011;35253;34.688;33.040;2023-04-25T03:44:35;7.18;;;4.90;;
49376;SDS011;35253;34.688;33.040;2023-04-25T03:47:00;11.18;;;4.60;;
49376;SDS011;35253;34.688;33.040;2023-04-25T03:49:26;6.35;;;4.18;;
49376;SDS011;35253;34.688;33.040;2023-04-25T03:51:51;5.50;;;4.03;;
49376;SDS011;35253;34.688;33.040;2023-04-25T03:54:17;10.55;;;4.22;;
49376;SDS011;35253;34.688;33.040;2023-04-25T03:56:43;11.00;;;4.75;;
49376;SDS011;35253;34.688;33.040;2023-04-25T03:59:08;5.75;;;4.47;;
49376;SDS011;35253;34.688;33.040;2023-04-25T04:01:34;8.32;;;4.32;;
49376;SDS011;35253;34.688;33.040;2023-04-25T04:04:00;9.77;;;4.25;;
49376;SDS011;35253;34.688;33.040;2023-04-25T04:06:26;5.47;;;3.78;;
49376;SDS011;35253;34.688;33.040;2023-04-25T04:08:52;6.43;;;3.83;;
49376;SDS011;35253;34.688;33.040;2023-04-25T04:11:17;6.15;;;4.03;;
49376;SDS011;35253;34.688;33.040;2023-04-25T04:13:43;6.65;;;3.42;;
49376;SDS011;35253;34.688;33.040;2023-04-25T04:16:09;8.82;;;5.97;;
49376;SDS011;35253;34.688;33.040;2023-04-25T04:18:35;7.68;;;3.67;;
49376;SDS011;35253;34.688;33.040;2023-04-25T04:21:00;7.13;;;3.67;;
49376;SDS011;35253;34.688;33.040;2023-04-25T04:23:26;9.80;;;4.55;;
49376;SDS011;35253;34.688;33.040;2023-04-25T04:25:53;10.63;;;5.35;;
49376;SDS011;35253;34.688;33.040;2023-04-25T04:28:19;7.72;;;4.70;;
49376;SDS011;35253;34.688;33.040;2023-04-25T04:30:45;20.95;;;5.95;;
49376;SDS011;35253;34.688;33.040;2023-04-25T04:33:11;8.45;;;4.38;;
49376;SDS011;35253;34.688;33.040;2023-04-25T04:35:37;7.15;;;4.35;;
49376;SDS011;35253;34.688;33.040;2023-04-25T04:38:03;5.32;;;3.83;;
49376;SDS011;35253;34.688;33.040;2023-04-25T04:40:29;4.97;;;4.07;;
49376;SDS011;35253;34.688;33.040;2023-04-25T04:42:56;8.15;;;4.35;;
49376;SDS011;35253;34.688;33.040;2023-04-25T04:45:22;8.80;;;3.40;;
49376;SDS011;35253;34.688;33.040;2023-04-25T04:47:49;6.97;;;4.15;;
49376;SDS011;35253;34.688;33.040;2023-04-25T04:50:15;6.22;;;4.32;;
49376;SDS011;35253;34.688;33.040;2023-04-25T04:52:41;8.55;;;3.78;;
49376;SDS011;35253;34.688;33.040;2023-04-25T04:55:07;10.25;;;5.03;;
49376;SDS011;35253;34.688;33.040;2023-04-25T04:57:35;7.72;;;4.70;;
49376;SDS011;35253;34.688;33.040;2023-04-25T05:00:00;6.57;;;3.97;;
49376;SDS011;35253;34.688;33.040;2023-04-25T05:02:29;7.95;;;4.75;;
49376;SDS011;35253;34.688;33.040;2023-04-25T05:04:55;6.97;;;4.43;;
49376;SDS011;35253;34.688;33.040;2023-04-25T05:07:21;5.85;;;4.20;;
49376;SDS011;35253;34.688;33.040;2023-04-25T05:09:47;7.68;;;4.63;;
49376;SDS011;35253;34.688;33.040;2023-04-25T05:12:12;8.80;;;4.43;;
49376;SDS011;35253;34.688;33.040;2023-04-25T05:14:38;7.50;;;5.13;;
49376;SDS011;35253;34.688;33.040;2023-04-25T05:17:04;9.00;;;4.30;;
49376;SDS011;35253;34.688;33.040;2023-04-25T05:19:33;8.95;;;4.35;;
49376;SDS011;35253;34.688;33.040;2023-04-25T05:21:59;7.90;;;4.53;;
49376;SDS011;35253;34.688;33.040;2023-04-25T05:24:25;11.68;;;5.18;;
49376;SDS011;35253;34.688;33.040;2023-04-25T05:26:50;24.33;;;8.38;;
49376;SDS011;35253;34.688;33.040;2023-04-25T05:29:16;12.50;;;6.95;;
49376;SDS011;35253;34.688;33.040;2023-04-25T05:31:42;5.60;;;3.97;;
49376;SDS011;35253;34.688;33.040;2023-04-25T05:34:07;15.25;;;4.70;;
49376;SDS011;35253;34.688;33.040;2023-04-25T05:36:33;7.63;;;4.38;;
49376;SDS011;35253;34.688;33.040;2023-04-25T05:38:59;10.85;;;5.65;;
49376;SDS011;35253;34.688;33.040;2023-04-25T05:41:25;7.93;;;4.30;;
49376;SDS011;35253;34.688;33.040;2023-04-25T05:43:50;14.43;;;4.93;;
49376;SDS011;35253;34.688;33.040;2023-04-25T05:46:16;14.02;;;4.68;;
49376;SDS011;35253;34.688;33.040;2023-04-25T05:48:44;8.80;;;4.93;;
49376;SDS011;35253;34.688;33.040;2023-04-25T05:51:10;8.13;;;4.38;;
49376;SDS011;35253;34.688;33.040;2023-04-25T05:53:36;13.45;;;5.28;;
49376;SDS011;35253;34.688;33.040;2023-04-25T05:56:01;7.30;;;3.88;;
49376;SDS011;35253;34.688;33.040;2023-04-25T05:58:27;7.70;;;3.13;;
49376;SDS011;35253;34.688;33.040;2023-04-25T06:00:54;7.53;;;3.42;;
49376;SDS011;35253;34.688;33.040;2023-04-25T06:03:20;5.50;;;2.72;;
49376;SDS011;35253;34.688;33.040;2023-04-25T06:05:46;3.65;;;2.80;;
49376;SDS011;35253;34.688;33.040;2023-04-25T06:08:11;4.95;;;3.22;;
49376;SDS011;35253;34.688;33.040;2023-04-25T06:10:37;4.90;;;2.38;;
49376;SDS011;35253;34.688;33.040;2023-04-25T06:13:04;5.80;;;3.30;;
49376;SDS011;35253;34.688;33.040;2023-04-25T06:15:30;6.72;;;3.72;;
49376;SDS011;35253;34.688;33.040;2023-04-25T06:17:58;4.25;;;3.22;;
49376;SDS011;35253;34.688;33.040;2023-04-25T06:20:24;9.02;;;2.80;;
49376;SDS011;35253;34.688;33.040;2023-04-25T06:22:50;7.47;;;3.05;;
49376;SDS011;35253;34.688;33.040;2023-04-25T06:25:17;7.95;;;2.85;;
49376;SDS011;35253;34.688;33.040;2023-04-25T06:27:43;5.03;;;2.88;;
49376;SDS011;35253;34.688;33.040;2023-04-25T06:30:09;6.47;;;3.38;;
49376;SDS011;35253;34.688;33.040;2023-04-25T06:32:37;6.82;;;3.90;;
49376;SDS011;35253;34.688;33.040;2023-04-25T06:35:06;12.27;;;3.97;;
49376;SDS011;35253;34.688;33.040;2023-04-25T06:37:31;7.28;;;3.50;;
49376;SDS011;35253;34.688;33.040;2023-04-25T06:39:57;3.75;;;2.83;;
49376;SDS011;35253;34.688;33.040;2023-04-25T06:42:23;8.57;;;3.45;;
49376;SDS011;35253;34.688;33.040;2023-04-25T06:44:48;9.65;;;3.55;;
49376;SDS011;35253;34.688;33.040;2023-04-25T06:47:14;6.55;;;4.00;;
49376;SDS011;35253;34.688;33.040;2023-04-25T06:49:40;8.55;;;4.00;;
49376;SDS011;35253;34.688;33.040;2023-04-25T06:52:06;9.25;;;3.92;;
49376;SDS011;35253;34.688;33.040;2023-04-25T06:54:32;6.35;;;3.88;;
49376;SDS011;35253;34.688;33.040;2023-04-25T06:56:58;6.97;;;3.78;;
49376;SDS011;35253;34.688;33.040;2023-04-25T06:59:26;12.23;;;6.53;;
49376;SDS011;35253;34.688;33.040;2023-04-25T07:01:51;11.05;;;4.35;;
49376;SDS011;35253;34.688;33.040;2023-04-25T07:04:17;9.65;;;4.97;;
49376;SDS011;35253;34.688;33.040;2023-04-25T07:06:52;12.98;;;4.53;;
49376;SDS011;35253;34.688;33.040;2023-04-25T07:09:20;6.72;;;4.40;;
49376;SDS011;35253;34.688;33.040;2023-04-25T07:11:46;6.18;;;4.32;;
49376;SDS011;35253;34.688;33.040;2023-04-25T07:14:12;9.25;;;5.00;;
49376;SDS011;35253;34.688;33.040;2023-04-25T07:16:37;6.68;;;4.97;;
49376;SDS011;35253;34.688;33.040;2023-04-25T07:19:03;14.77;;;5.70;;
49376;SDS011;35253;34.688;33.040;2023-04-25T07:21:29;11.45;;;4.25;;
49376;SDS011;35253;34.688;33.040;2023-04-25T07:23:56;9.70;;;5.18;;
49376;SDS011;35253;34.688;33.040;2023-04-25T07:26:22;7.28;;;3.80;;
49376;SDS011;35253;34.688;33.040;2023-04-25T07:28:48;10.68;;;5.15;;
49376;SDS011;35253;34.688;33.040;2023-04-25T07:31:16;11.98;;;6.18;;
49376;SDS011;35253;34.688;33.040;2023-04-25T07:33:43;7.22;;;4.20;;
49376;SDS011;35253;34.688;33.040;2023-04-25T07:36:12;9.40;;;6.28;;
49376;SDS011;35253;34.688;33.040;2023-04-25T07:38:40;10.95;;;4.70;;
49376;SDS011;35253;34.688;33.040;2023-04-25T07:41:06;9.32;;;4.35;;
49376;SDS011;35253;34.688;33.040;2023-04-25T07:43:31;11.30;;;5.93;;
49376;SDS011;35253;34.688;33.040;2023-04-25T07:45:57;11.27;;;5.85;;
49376;SDS011;35253;34.688;33.040;2023-04-25T07:48:23;10.68;;;5.60;;
49376;SDS011;35253;34.688;33.040;2023-04-25T07:50:49;6.97;;;4.68;;
49376;SDS011;35253;34.688;33.040;2023-04-25T07:53:14;10.35;;;5.03;;
49376;SDS011;35253;34.688;33.040;2023-04-25T07:55:40;14.93;;;6.70;;
49376;SDS011;35253;34.688;33.040;2023-04-25T07:58:06;12.48;;;5.57;;
49376;SDS011;35253;34.688;33.040;2023-04-25T08:00:33;11.48;;;5.60;;
49376;SDS011;35253;34.688;33.040;2023-04-25T08:02:59;8.57;;;4.82;;
49376;SDS011;35253;34.688;33.040;2023-04-25T08:05:24;13.38;;;6.43;;
49376;SDS011;35253;34.688;33.040;2023-04-25T08:07:50;13.02;;;4.78;;
49376;SDS011;35253;34.688;33.040;2023-04-25T08:10:16;8.95;;;5.25;;
49376;SDS011;35253;34.688;33.040;2023-04-25T08:12:42;12.10;;;6.82;;
49376;SDS011;35253;34.688;33.040;2023-04-25T08:15:08;10.50;;;5.28;;
49376;SDS011;35253;34.688;33.040;2023-04-25T08:17:34;10.85;;;5.18;;
49376;SDS011;35253;34.688;33.040;2023-04-25T08:20:00;9.25;;;5.32;;
49376;SDS011;35253;34.688;33.040;2023-04-25T08:22:28;9.68;;;4.32;;
49376;SDS011;35253;34.688;33.040;2023-04-25T08:24:55;5.30;;;3.57;;
49376;SDS011;35253;34.688;33.040;2023-04-25T08:27:21;8.82;;;4.55;;
49376;SDS011;35253;34.688;33.040;2023-04-25T08:29:47;5.85;;;3.92;;
49376;SDS011;35253;34.688;33.040;2023-04-25T08:32:12;5.95;;;4.20;;
49376;SDS011;35253;34.688;33.040;2023-04-25T08:34:40;5.75;;;4.07;;
49376;SDS011;35253;34.688;33.040;2023-04-25T08:37:08;4.35;;;3.95;;
49376;SDS011;35253;34.688;33.040;2023-04-25T08:39:35;4.57;;;3.47;;
49376;SDS011;35253;34.688;33.040;2023-04-25T08:42:02;7.40;;;4.15;;
49376;SDS011;35253;34.688;33.040;2023-04-25T08:44:35;4.68;;;3.47;;
49376;SDS011;35253;34.688;33.040;2023-04-25T08:47:05;6.50;;;4.10;;
49376;SDS011;35253;34.688;33.040;2023-04-25T08:49:31;6.45;;;3.80;;
49376;SDS011;35253;34.688;33.040;2023-04-25T08:52:01;4.05;;;3.50;;
49376;SDS011;35253;34.688;33.040;2023-04-25T08:54:31;8.43;;;3.47;;
49376;SDS011;35253;34.688;33.040;2023-04-25T08:57:00;6.57;;;3.60;;
49376;SDS011;35253;34.688;33.040;2023-04-25T08:59:32;5.60;;;3.08;;
49376;SDS011;35253;34.688;33.040;2023-04-25T09:01:58;10.20;;;3.22;;
49376;SDS011;35253;34.688;33.040;2023-04-25T09:04:23;7.03;;;5.03;;
49376;SDS011;35253;34.688;33.040;2023-04-25T09:06:50;4.45;;;2.97;;
49376;SDS011;35253;34.688;33.040;2023-04-25T09:09:15;5.65;;;3.17;;
49376;SDS011;35253;34.688;33.040;2023-04-25T09:11:41;7.20;;;4.38;;
49376;SDS011;35253;34.688;33.040;2023-04-25T09:14:17;7.10;;;3.72;;
49376;SDS011;35253;34.688;33.040;2023-04-25T09:19:40;6.95;;;3.00;;
49376;SDS011;35253;34.688;33.040;2023-04-25T09:22:08;10.52;;;3.70;;
49376;SDS011;35253;34.688;33.040;2023-04-25T09:24:38;4.07;;;3.08;;
49376;SDS011;35253;34.688;33.040;2023-04-25T09:27:07;4.80;;;3.08;;
49376;SDS011;35253;34.688;33.040;2023-04-25T09:29:35;9.73;;;5.60;;
49376;SDS011;35253;34.688;33.040;2023-04-25T09:32:21;7.05;;;3.47;;
49376;SDS011;35253;34.688;33.040;2023-04-25T09:34:52;6.25;;;4.50;;
49376;SDS011;35253;34.688;33.040;2023-04-25T09:37:20;3.63;;;2.92;;
49376;SDS011;35253;34.688;33.040;2023-04-25T09:39:49;8.77;;;3.13;;
49376;SDS011;35253;34.688;33.040;2023-04-25T09:42:16;5.85;;;3.47;;
49376;SDS011;35253;34.688;33.040;2023-04-25T09:44:43;7.57;;;3.13;;
49376;SDS011;35253;34.688;33.040;2023-04-25T09:47:10;6.15;;;2.75;;
49376;SDS011;35253;34.688;33.040;2023-04-25T09:49:41;4.10;;;3.70;;
49376;SDS011;35253;34.688;33.040;2023-04-25T09:54:34;4.18;;;3.22;;
49376;SDS011;35253;34.688;33.040;2023-04-25T09:57:18;5.40;;;4.63;;
49376;SDS011;35253;34.688;33.040;2023-04-25T09:59:46;6.82;;;4.32;;
49376;SDS011;35253;34.688;33.040;2023-04-25T10:02:17;7.10;;;4.32;;
49376;SDS011;35253;34.688;33.040;2023-04-25T10:04:50;6.97;;;3.67;;
49376;SDS011;35253;34.688;33.040;2023-04-25T10:07:20;7.78;;;4.82;;
49376;SDS011;35253;34.688;33.040;2023-04-25T10:10:03;5.20;;;3.85;;
49376;SDS011;35253;34.688;33.040;2023-04-25T10:12:30;6.45;;;3.00;;
49376;SDS011;35253;34.688;33.040;2023-04-25T10:14:57;5.75;;;3.15;;
49376;SDS011;35253;34.688;33.040;2023-04-25T10:17:23;3.50;;;3.15;;
49376;SDS011;35253;34.688;33.040;2023-04-25T10:19:50;3.30;;;2.95;;
49376;SDS011;35253;34.688;33.040;2023-04-25T10:22:18;6.13;;;3.75;;
49376;SDS011;35253;34.688;33.040;2023-04-25T10:24:51;7.78;;;3.78;;
49376;SDS011;35253;34.688;33.040;2023-04-25T10:27:17;4.38;;;3.80;;
49376;SDS011;35253;34.688;33.040;2023-04-25T10:29:44;4.95;;;4.05;;
49376;SDS011;35253;34.688;33.040;2023-04-25T10:32:09;6.05;;;4.97;;
49376;SDS011;35253;34.688;33.040;2023-04-25T10:34:39;5.85;;;4.28;;
49376;SDS011;35253;34.688;33.040;2023-04-25T10:37:05;7.32;;;4.13;;
49376;SDS011;35253;34.688;33.040;2023-04-25T10:39:34;5.40;;;3.15;;
49376;SDS011;35253;34.688;33.040;2023-04-25T10:42:01;8.38;;;4.15;;
49376;SDS011;35253;34.688;33.040;2023-04-25T10:44:28;6.60;;;3.35;;
49376;SDS011;35253;34.688;33.040;2023-04-25T10:46:55;10.85;;;5.32;;
49376;SDS011;35253;34.688;33.040;2023-04-25T10:49:29;7.10;;;4.03;;
49376;SDS011;35253;34.688;33.040;2023-04-25T10:52:12;4.40;;;2.97;;
49376;SDS011;35253;34.688;33.040;2023-04-25T10:54:56;5.15;;;3.40;;
49376;SDS011;35253;34.688;33.040;2023-04-25T10:57:29;9.13;;;4.40;;
49376;SDS011;35253;34.688;33.040;2023-04-25T11:00:05;8.60;;;3.83;;
49376;SDS011;35253;34.688;33.040;2023-04-25T11:02:47;5.95;;;3.63;;
49376;SDS011;35253;34.688;33.040;2023-04-25T11:05:20;8.48;;;3.17;;
49376;SDS011;35253;34.688;33.040;2023-04-25T11:10:17;6.07;;;2.67;;
49376;SDS011;35253;34.688;33.040;2023-04-25T11:12:44;5.25;;;3.65;;
49376;SDS011;35253;34.688;33.040;2023-04-25T11:15:10;5.38;;;2.97;;
49376;SDS011;35253;34.688;33.040;2023-04-25T11:17:36;5.22;;;3.03;;
49376;SDS011;35253;34.688;33.040;2023-04-25T11:20:02;6.43;;;2.30;;
49376;SDS011;35253;34.688;33.040;2023-04-25T11:22:32;6.00;;;2.45;;
49376;SDS011;35253;34.688;33.040;2023-04-25T11:25:04;6.88;;;3.97;;
49376;SDS011;35253;34.688;33.040;2023-04-25T11:27:31;4.60;;;2.47;;
49376;SDS011;35253;34.688;33.040;2023-04-25T11:29:57;3.00;;;2.00;;
49376;SDS011;35253;34.688;33.040;2023-04-25T11:32:23;6.82;;;2.55;;
49376;SDS011;35253;34.688;33.040;2023-04-25T11:34:49;6.93;;;2.42;;
49376;SDS011;35253;34.688;33.040;2023-04-25T11:37:14;4.85;;;2.25;;
49376;SDS011;35253;34.688;33.040;2023-04-25T11:39:44;2.83;;;2.22;;
49376;SDS011;35253;34.688;33.040;2023-04-25T11:42:13;3.92;;;2.20;;
49376;SDS011;35253;34.688;33.040;2023-04-25T11:44:39;2.33;;;2.13;;
49376;SDS011;35253;34.688;33.040;2023-04-25T11:47:05;4.45;;;2.60;;
49376;SDS011;35253;34.688;33.040;2023-04-25T11:49:31;7.47;;;3.80;;
49376;SDS011;35253;34.688;33.040;2023-04-25T11:51:57;4.93;;;2.78;;
49376;SDS011;35253;34.688;33.040;2023-04-25T11:54:23;7.68;;;2.75;;
49376;SDS011;35253;34.688;33.040;2023-04-25T11:56:49;5.82;;;3.17;;
49376;SDS011;35253;34.688;33.040;2023-04-25T11:59:15;5.05;;;1.75;;
49376;SDS011;35253;34.688;33.040;2023-04-25T12:01:47;6.30;;;2.45;;
49376;SDS011;35253;34.688;33.040;2023-04-25T12:04:15;5.00;;;2.50;;
49376;SDS011;35253;34.688;33.040;2023-04-25T12:06:44;7.63;;;2.33;;
49376;SDS011;35253;34.688;33.040;2023-04-25T12:11:41;7.38;;;2.80;;
49376;SDS011;35253;34.688;33.040;2023-04-25T12:14:12;4.25;;;2.42;;
49376;SDS011;35253;34.688;33.040;2023-04-25T12:16:46;4.85;;;2.40;;
49376;SDS011;35253;34.688;33.040;2023-04-25T12:19:15;8.82;;;3.83;;
49376;SDS011;35253;34.688;33.040;2023-04-25T12:21:42;6.90;;;2.75;;
49376;SDS011;35253;34.688;33.040;2023-04-25T12:24:18;6.18;;;2.63;;
49376;SDS011;35253;34.688;33.040;2023-04-25T12:26:53;4.07;;;2.42;;
49376;SDS011;35253;34.688;33.040;2023-04-25T12:31:46;5.53;;;2.75;;
49376;SDS011;35253;34.688;33.040;2023-04-25T12:34:12;6.65;;;2.60;;
49376;SDS011;35253;34.688;33.040;2023-04-25T12:36:37;3.67;;;2.70;;
49376;SDS011;35253;34.688;33.040;2023-04-25T12:39:04;2.75;;;2.20;;
49376;SDS011;35253;34.688;33.040;2023-04-25T12:41:30;5.45;;;2.50;;
49376;SDS011;35253;34.688;33.040;2023-04-25T12:43:56;6.15;;;2.55;;
49376;SDS011;35253;34.688;33.040;2023-04-25T12:46:21;2.95;;;2.45;;
49376;SDS011;35253;34.688;33.040;2023-04-25T12:48:50;7.15;;;3.97;;
49376;SDS011;35253;34.688;33.040;2023-04-25T12:51:16;14.02;;;5.35;;
49376;SDS011;35253;34.688;33.040;2023-04-25T12:53:41;5.50;;;2.83;;
49376;SDS011;35253;34.688;33.040;2023-04-25T12:56:07;4.65;;;2.63;;
49376;SDS011;35253;34.688;33.040;2023-04-25T12:58:35;4.57;;;2.47;;
49376;SDS011;35253;34.688;33.040;2023-04-25T13:01:00;4.32;;;2.45;;
49376;SDS011;35253;34.688;33.040;2023-04-25T13:03:26;3.40;;;2.75;;
49376;SDS011;35253;34.688;33.040;2023-04-25T13:05:52;6.00;;;2.58;;
49376;SDS011;35253;34.688;33.040;2023-04-25T13:08:18;5.25;;;2.47;;
49376;SDS011;35253;34.688;33.040;2023-04-25T13:10:44;6.80;;;2.75;;
49376;SDS011;35253;34.688;33.040;2023-04-25T13:13:10;4.65;;;2.40;;
49376;SDS011;35253;34.688;33.040;2023-04-25T13:15:35;3.47;;;2.53;;
49376;SDS011;35253;34.688;33.040;2023-04-25T13:18:03;4.28;;;2.45;;
49376;SDS011;35253;34.688;33.040;2023-04-25T13:20:30;6.45;;;2.53;;
49376;SDS011;35253;34.688;33.040;2023-04-25T13:22:56;4.10;;;2.75;;
49376;SDS011;35253;34.688;33.040;2023-04-25T13:25:22;4.70;;;2.20;;
49376;SDS011;35253;34.688;33.040;2023-04-25T13:27:48;8.93;;;3.63;;
49376;SDS011;35253;34.688;33.040;2023-04-25T13:30:14;3.22;;;2.42;;
49376;SDS011;35253;34.688;33.040;2023-04-25T13:32:40;6.95;;;2.22;;
49376;SDS011;35253;34.688;33.040;2023-04-25T13:35:10;2.95;;;2.60;;
49376;SDS011;35253;34.688;33.040;2023-04-25T13:37:39;8.20;;;3.30;;
49376;SDS011;35253;34.688;33.040;2023-04-25T13:40:06;8.95;;;2.78;;
49376;SDS011;35253;34.688;33.040;2023-04-25T13:42:35;3.65;;;2.00;;
49376;SDS011;35253;34.688;33.040;2023-04-25T13:45:02;4.30;;;2.15;;
49376;SDS011;35253;34.688;33.040;2023-04-25T13:47:28;3.42;;;2.00;;
49376;SDS011;35253;34.688;33.040;2023-04-25T13:49:55;2.97;;;1.85;;
49376;SDS011;35253;34.688;33.040;2023-04-25T13:52:21;8.60;;;3.47;;
49376;SDS011;35253;34.688;33.040;2023-04-25T13:54:46;2.90;;;1.67;;
49376;SDS011;35253;34.688;33.040;2023-04-25T13:57:13;4.45;;;2.80;;
49376;SDS011;35253;34.688;33.040;2023-04-25T13:59:39;6.07;;;3.00;;
49376;SDS011;35253;34.688;33.040;2023-04-25T14:02:06;5.57;;;3.45;;
49376;SDS011;35253;34.688;33.040;2023-04-25T14:04:32;6.55;;;2.80;;
49376;SDS011;35253;34.688;33.040;2023-04-25T14:06:59;2.83;;;2.13;;
49376;SDS011;35253;34.688;33.040;2023-04-25T14:09:27;3.78;;;2.50;;
49376;SDS011;35253;34.688;33.040;2023-04-25T14:11:53;5.72;;;2.28;;
49376;SDS011;35253;34.688;33.040;2023-04-25T14:14:19;7.63;;;2.50;;
49376;SDS011;35253;34.688;33.040;2023-04-25T14:16:47;6.90;;;3.10;;
49376;SDS011;35253;34.688;33.040;2023-04-25T14:19:20;6.65;;;3.60;;
49376;SDS011;35253;34.688;33.040;2023-04-25T14:21:46;5.03;;;2.30;;
49376;SDS011;35253;34.688;33.040;2023-04-25T14:24:12;5.63;;;2.33;;
49376;SDS011;35253;34.688;33.040;2023-04-25T14:26:38;8.10;;;3.08;;
49376;SDS011;35253;34.688;33.040;2023-04-25T14:29:06;4.30;;;2.83;;
49376;SDS011;35253;34.688;33.040;2023-04-25T14:31:32;5.38;;;2.00;;
49376;SDS011;35253;34.688;33.040;2023-04-25T14:33:58;2.40;;;1.77;;
49376;SDS011;35253;34.688;33.040;2023-04-25T14:36:24;9.65;;;3.10;;
49376;SDS011;35253;34.688;33.040;2023-04-25T14:38:54;6.97;;;3.92;;
49376;SDS011;35253;34.688;33.040;2023-04-25T14:41:20;9.55;;;2.08;;
49376;SDS011;35253;34.688;33.040;2023-04-25T14:43:47;7.03;;;3.30;;
49376;SDS011;35253;34.688;33.040;2023-04-25T14:46:13;3.25;;;2.22;;